sensor_id;sensor_type;location;lat;lon;timestamp;P1;durP1;ratioP1;P2;durP2;ratioP2
49412;SDS011;35493;50.276;9.372;2023-01-01T00:00:12;15.20;;;10.00;;
49412;SDS011;35493;50.276;9.372;2023-01-01T00:02:41;15.82;;;10.95;;
49412;SDS011;35493;50.276;9.372;2023-01-01T00:05:08;15.30;;;10.73;;
49412;SDS011;35493;50.276;9.372;2023-01-01T00:07:41;15.20;;;11.38;;
49412;SDS011;35493;50.276;9.372;2023-01-01T00:10:13;15.60;;;10.73;;
49412;SDS011;35493;50.276;9.372;2023-01-01T00:12:55;15.95;;;11.00;;
49412;SDS011;35493;50.276;9.372;2023-01-01T00:15:29;13.50;;;10.45;;
49412;SDS011;35493;50.276;9.372;2023-01-01T00:18:00;13.48;;;9.80;;
49412;SDS011;35493;50.276;9.372;2023-01-01T00:20:27;16.00;;;9.68;;
49412;SDS011;35493;50.276;9.372;2023-01-01T00:22:54;12.00;;;8.82;;
49412;SDS011;35493;50.276;9.372;2023-01-01T00:25:21;14.60;;;8.40;;
49412;SDS011;35493;50.276;9.372;2023-01-01T00:27:48;12.60;;;8.50;;
49412;SDS011;35493;50.276;9.372;2023-01-01T00:30:15;16.23;;;8.70;;
49412;SDS011;35493;50.276;9.372;2023-01-01T00:32:42;14.07;;;8.70;;
49412;SDS011;35493;50.276;9.372;2023-01-01T00:35:11;12.40;;;7.90;;
49412;SDS011;35493;50.276;9.372;2023-01-01T00:37:38;11.07;;;7.13;;
49412;SDS011;35493;50.276;9.372;2023-01-01T00:40:05;13.52;;;8.15;;
49412;SDS011;35493;50.276;9.372;2023-01-01T00:42:33;16.33;;;8.10;;
49412;SDS011;35493;50.276;9.372;2023-01-01T00:44:59;18.00;;;11.75;;
49412;SDS011;35493;50.276;9.372;2023-01-01T00:47:33;20.08;;;13.05;;
49412;SDS011;35493;50.276;9.372;2023-01-01T00:50:00;20.73;;;13.65;;
49412;SDS011;35493;50.276;9.372;2023-01-01T00:52:28;21.83;;;13.65;;
49412;SDS011;35493;50.276;9.372;2023-01-01T00:54:55;21.27;;;12.98;;
49412;SDS011;35493;50.276;9.372;2023-01-01T00:57:22;20.17;;;12.40;;
49412;SDS011;35493;50.276;9.372;2023-01-01T00:59:48;19.48;;;12.38;;
49412;SDS011;35493;50.276;9.372;2023-01-01T01:02:15;18.77;;;11.95;;
49412;SDS011;35493;50.276;9.372;2023-01-01T01:04:42;19.90;;;11.80;;
49412;SDS011;35493;50.276;9.372;2023-01-01T01:07:09;16.65;;;11.02;;
49412;SDS011;35493;50.276;9.372;2023-01-01T01:09:37;17.45;;;10.98;;
49412;SDS011;35493;50.276;9.372;2023-01-01T01:12:04;19.48;;;10.05;;
49412;SDS011;35493;50.276;9.372;2023-01-01T01:14:32;16.85;;;10.13;;
49412;SDS011;35493;50.276;9.372;2023-01-01T01:16:59;16.25;;;9.25;;
49412;SDS011;35493;50.276;9.372;2023-01-01T01:19:26;12.63;;;8.90;;
49412;SDS011;35493;50.276;9.372;2023-01-01T01:21:53;15.05;;;9.30;;
49412;SDS011;35493;50.276;9.372;2023-01-01T01:24:20;14.35;;;9.18;;
49412;SDS011;35493;50.276;9.372;2023-01-01T01:26:48;16.20;;;10.02;;
49412;SDS011;35493;50.276;9.372;2023-01-01T01:29:15;17.02;;;10.32;;
49412;SDS011;35493;50.276;9.372;2023-01-01T01:31:42;15.25;;;9.65;;
49412;SDS011;35493;50.276;9.372;2023-01-01T01:34:09;14.15;;;9.50;;
49412;SDS011;35493;50.276;9.372;2023-01-01T01:36:36;16.35;;;9.02;;
49412;SDS011;35493;50.276;9.372;2023-01-01T01:39:03;13.98;;;9.10;;
49412;SDS011;35493;50.276;9.372;2023-01-01T01:41:30;15.25;;;8.82;;
49412;SDS011;35493;50.276;9.372;2023-01-01T01:43:59;15.18;;;8.95;;
49412;SDS011;35493;50.276;9.372;2023-01-01T01:46:29;12.50;;;8.82;;
49412;SDS011;35493;50.276;9.372;2023-01-01T01:48:59;15.02;;;8.50;;
49412;SDS011;35493;50.276;9.372;2023-01-01T01:51:32;12.55;;;8.07;;
49412;SDS011;35493;50.276;9.372;2023-01-01T01:56:30;13.82;;;8.30;;
49412;SDS011;35493;50.276;9.372;2023-01-01T01:59:07;12.73;;;7.90;;
49412;SDS011;35493;50.276;9.372;2023-01-01T02:01:34;13.80;;;8.00;;
49412;SDS011;35493;50.276;9.372;2023-01-01T02:04:01;12.38;;;7.80;;
49412;SDS011;35493;50.276;9.372;2023-01-01T02:06:30;14.07;;;7.93;;
49412;SDS011;35493;50.276;9.372;2023-01-01T02:08:59;13.35;;;7.57;;
49412;SDS011;35493;50.276;9.372;2023-01-01T02:11:28;11.07;;;6.97;;
49412;SDS011;35493;50.276;9.372;2023-01-01T02:13:55;12.77;;;7.35;;
49412;SDS011;35493;50.276;9.372;2023-01-01T02:16:26;13.05;;;7.60;;
49412;SDS011;35493;50.276;9.372;2023-01-01T02:18:59;13.98;;;8.77;;
49412;SDS011;35493;50.276;9.372;2023-01-01T02:21:33;12.60;;;7.93;;
49412;SDS011;35493;50.276;9.372;2023-01-01T02:24:14;13.32;;;7.65;;
49412;SDS011;35493;50.276;9.372;2023-01-01T02:26:58;12.68;;;7.68;;
49412;SDS011;35493;50.276;9.372;2023-01-01T02:29:36;15.05;;;8.52;;
49412;SDS011;35493;50.276;9.372;2023-01-01T02:32:08;12.60;;;7.45;;
49412;SDS011;35493;50.276;9.372;2023-01-01T02:34:38;11.70;;;7.60;;
49412;SDS011;35493;50.276;9.372;2023-01-01T02:37:07;13.13;;;8.10;;
49412;SDS011;35493;50.276;9.372;2023-01-01T02:42:07;10.48;;;6.63;;
49412;SDS011;35493;50.276;9.372;2023-01-01T02:44:37;9.45;;;6.22;;
49412;SDS011;35493;50.276;9.372;2023-01-01T02:47:09;14.00;;;7.03;;
49412;SDS011;35493;50.276;9.372;2023-01-01T02:49:38;12.60;;;7.30;;
49412;SDS011;35493;50.276;9.372;2023-01-01T02:52:34;10.70;;;6.32;;
49412;SDS011;35493;50.276;9.372;2023-01-01T02:55:13;8.77;;;5.78;;
49412;SDS011;35493;50.276;9.372;2023-01-01T02:57:51;11.43;;;6.45;;
49412;SDS011;35493;50.276;9.372;2023-01-01T03:00:46;10.75;;;6.50;;
49412;SDS011;35493;50.276;9.372;2023-01-01T03:03:16;10.07;;;6.07;;
49412;SDS011;35493;50.276;9.372;2023-01-01T03:05:52;7.57;;;4.85;;
49412;SDS011;35493;50.276;9.372;2023-01-01T03:08:43;9.20;;;5.32;;
49412;SDS011;35493;50.276;9.372;2023-01-01T03:11:14;9.00;;;4.65;;
49412;SDS011;35493;50.276;9.372;2023-01-01T03:13:45;10.13;;;5.05;;
49412;SDS011;35493;50.276;9.372;2023-01-01T03:16:20;9.00;;;4.60;;
49412;SDS011;35493;50.276;9.372;2023-01-01T03:18:53;9.27;;;5.18;;
49412;SDS011;35493;50.276;9.372;2023-01-01T03:21:40;8.02;;;4.45;;
49412;SDS011;35493;50.276;9.372;2023-01-01T03:24:11;8.80;;;4.28;;
49412;SDS011;35493;50.276;9.372;2023-01-01T03:26:42;7.68;;;4.32;;
49412;SDS011;35493;50.276;9.372;2023-01-01T03:29:13;6.95;;;4.53;;
49412;SDS011;35493;50.276;9.372;2023-01-01T03:31:43;9.13;;;4.20;;
49412;SDS011;35493;50.276;9.372;2023-01-01T03:34:15;7.93;;;4.00;;
49412;SDS011;35493;50.276;9.372;2023-01-01T03:36:47;8.35;;;4.25;;
49412;SDS011;35493;50.276;9.372;2023-01-01T03:39:19;6.00;;;3.50;;
49412;SDS011;35493;50.276;9.372;2023-01-01T03:41:51;7.15;;;3.90;;
49412;SDS011;35493;50.276;9.372;2023-01-01T03:44:24;7.80;;;3.80;;
49412;SDS011;35493;50.276;9.372;2023-01-01T03:46:57;6.75;;;3.70;;
49412;SDS011;35493;50.276;9.372;2023-01-01T03:49:25;8.33;;;3.73;;
49412;SDS011;35493;50.276;9.372;2023-01-01T03:51:58;7.35;;;3.92;;
49412;SDS011;35493;50.276;9.372;2023-01-01T03:54:32;5.70;;;3.08;;
49412;SDS011;35493;50.276;9.372;2023-01-01T03:57:05;8.55;;;3.50;;
49412;SDS011;35493;50.276;9.372;2023-01-01T03:59:41;7.72;;;3.13;;
49412;SDS011;35493;50.276;9.372;2023-01-01T04:02:24;7.75;;;2.75;;
49412;SDS011;35493;50.276;9.372;2023-01-01T04:04:56;5.82;;;3.20;;
49412;SDS011;35493;50.276;9.372;2023-01-01T04:07:25;5.90;;;3.15;;
49412;SDS011;35493;50.276;9.372;2023-01-01T04:09:54;7.90;;;3.15;;
49412;SDS011;35493;50.276;9.372;2023-01-01T04:12:26;6.20;;;3.20;;
49412;SDS011;35493;50.276;9.372;2023-01-01T04:14:54;4.95;;;2.72;;
49412;SDS011;35493;50.276;9.372;2023-01-01T04:17:23;5.68;;;2.92;;
49412;SDS011;35493;50.276;9.372;2023-01-01T04:19:49;8.32;;;3.20;;
49412;SDS011;35493;50.276;9.372;2023-01-01T04:22:16;6.43;;;2.88;;
49412;SDS011;35493;50.276;9.372;2023-01-01T04:24:47;7.00;;;3.38;;
49412;SDS011;35493;50.276;9.372;2023-01-01T04:27:14;6.68;;;2.75;;
49412;SDS011;35493;50.276;9.372;2023-01-01T04:29:41;6.63;;;3.28;;
49412;SDS011;35493;50.276;9.372;2023-01-01T04:32:08;8.10;;;3.88;;
49412;SDS011;35493;50.276;9.372;2023-01-01T04:34:36;6.45;;;3.53;;
49412;SDS011;35493;50.276;9.372;2023-01-01T04:37:03;6.82;;;3.08;;
49412;SDS011;35493;50.276;9.372;2023-01-01T04:39:30;6.05;;;2.85;;
49412;SDS011;35493;50.276;9.372;2023-01-01T04:41:56;7.38;;;3.55;;
49412;SDS011;35493;50.276;9.372;2023-01-01T04:44:23;7.43;;;3.42;;
49412;SDS011;35493;50.276;9.372;2023-01-01T04:46:50;6.05;;;3.03;;
49412;SDS011;35493;50.276;9.372;2023-01-01T04:49:17;6.88;;;3.00;;
49412;SDS011;35493;50.276;9.372;2023-01-01T04:51:45;8.13;;;3.20;;
49412;SDS011;35493;50.276;9.372;2023-01-01T04:54:12;8.35;;;3.35;;
49412;SDS011;35493;50.276;9.372;2023-01-01T04:56:39;6.22;;;3.17;;
49412;SDS011;35493;50.276;9.372;2023-01-01T04:59:06;6.13;;;3.17;;
49412;SDS011;35493;50.276;9.372;2023-01-01T05:01:33;4.57;;;2.60;;
49412;SDS011;35493;50.276;9.372;2023-01-01T05:04:00;6.25;;;3.28;;
49412;SDS011;35493;50.276;9.372;2023-01-01T05:06:27;6.75;;;2.78;;
49412;SDS011;35493;50.276;9.372;2023-01-01T05:08:57;9.27;;;3.50;;
49412;SDS011;35493;50.276;9.372;2023-01-01T05:11:30;5.80;;;2.75;;
49412;SDS011;35493;50.276;9.372;2023-01-01T05:13:58;7.32;;;2.72;;
49412;SDS011;35493;50.276;9.372;2023-01-01T05:16:26;6.75;;;2.92;;
49412;SDS011;35493;50.276;9.372;2023-01-01T05:18:54;6.30;;;3.00;;
49412;SDS011;35493;50.276;9.372;2023-01-01T05:21:23;6.65;;;3.03;;
49412;SDS011;35493;50.276;9.372;2023-01-01T05:23:52;5.45;;;2.47;;
49412;SDS011;35493;50.276;9.372;2023-01-01T05:26:23;7.68;;;3.50;;
49412;SDS011;35493;50.276;9.372;2023-01-01T05:28:52;5.68;;;2.65;;
49412;SDS011;35493;50.276;9.372;2023-01-01T05:31:20;5.63;;;2.70;;
49412;SDS011;35493;50.276;9.372;2023-01-01T05:33:50;5.07;;;2.85;;
49412;SDS011;35493;50.276;9.372;2023-01-01T05:36:19;6.32;;;2.30;;
49412;SDS011;35493;50.276;9.372;2023-01-01T05:38:47;5.25;;;2.85;;
49412;SDS011;35493;50.276;9.372;2023-01-01T05:41:15;6.28;;;2.88;;
49412;SDS011;35493;50.276;9.372;2023-01-01T05:43:44;5.20;;;2.40;;
49412;SDS011;35493;50.276;9.372;2023-01-01T05:46:11;5.80;;;2.75;;
49412;SDS011;35493;50.276;9.372;2023-01-01T05:48:40;8.50;;;2.42;;
49412;SDS011;35493;50.276;9.372;2023-01-01T05:51:08;9.13;;;2.80;;
49412;SDS011;35493;50.276;9.372;2023-01-01T05:53:36;5.72;;;2.60;;
49412;SDS011;35493;50.276;9.372;2023-01-01T05:56:03;5.38;;;2.70;;
49412;SDS011;35493;50.276;9.372;2023-01-01T05:58:31;5.38;;;2.67;;
49412;SDS011;35493;50.276;9.372;2023-01-01T06:01:05;5.10;;;2.30;;
49412;SDS011;35493;50.276;9.372;2023-01-01T06:03:33;8.32;;;2.65;;
49412;SDS011;35493;50.276;9.372;2023-01-01T06:06:04;6.05;;;2.40;;
49412;SDS011;35493;50.276;9.372;2023-01-01T06:08:32;8.00;;;2.50;;
49412;SDS011;35493;50.276;9.372;2023-01-01T06:10:59;5.47;;;2.22;;
49412;SDS011;35493;50.276;9.372;2023-01-01T06:13:27;6.03;;;2.50;;
49412;SDS011;35493;50.276;9.372;2023-01-01T06:15:54;5.90;;;2.60;;
49412;SDS011;35493;50.276;9.372;2023-01-01T06:18:23;5.25;;;2.22;;
49412;SDS011;35493;50.276;9.372;2023-01-01T06:20:50;5.07;;;2.38;;
49412;SDS011;35493;50.276;9.372;2023-01-01T06:23:17;5.35;;;2.60;;
49412;SDS011;35493;50.276;9.372;2023-01-01T06:25:44;6.55;;;2.60;;
49412;SDS011;35493;50.276;9.372;2023-01-01T06:28:11;4.18;;;1.90;;
49412;SDS011;35493;50.276;9.372;2023-01-01T06:30:43;3.58;;;2.28;;
49412;SDS011;35493;50.276;9.372;2023-01-01T06:33:09;5.47;;;2.03;;
49412;SDS011;35493;50.276;9.372;2023-01-01T06:35:38;6.45;;;2.40;;
49412;SDS011;35493;50.276;9.372;2023-01-01T06:38:04;4.40;;;2.20;;
49412;SDS011;35493;50.276;9.372;2023-01-01T06:40:32;4.03;;;2.00;;
49412;SDS011;35493;50.276;9.372;2023-01-01T06:42:59;3.58;;;2.10;;
49412;SDS011;35493;50.276;9.372;2023-01-01T06:45:27;5.78;;;1.92;;
49412;SDS011;35493;50.276;9.372;2023-01-01T06:47:55;4.65;;;1.95;;
49412;SDS011;35493;50.276;9.372;2023-01-01T06:50:22;4.25;;;1.90;;
49412;SDS011;35493;50.276;9.372;2023-01-01T06:52:50;4.63;;;2.08;;
49412;SDS011;35493;50.276;9.372;2023-01-01T06:55:17;4.07;;;2.00;;
49412;SDS011;35493;50.276;9.372;2023-01-01T06:57:44;5.18;;;2.20;;
49412;SDS011;35493;50.276;9.372;2023-01-01T07:00:11;3.58;;;1.73;;
49412;SDS011;35493;50.276;9.372;2023-01-01T07:02:39;4.53;;;2.00;;
49412;SDS011;35493;50.276;9.372;2023-01-01T07:05:08;4.15;;;1.75;;
49412;SDS011;35493;50.276;9.372;2023-01-01T07:07:35;5.95;;;1.92;;
49412;SDS011;35493;50.276;9.372;2023-01-01T07:10:04;4.10;;;2.17;;
49412;SDS011;35493;50.276;9.372;2023-01-01T07:12:31;4.90;;;2.08;;
49412;SDS011;35493;50.276;9.372;2023-01-01T07:14:58;3.97;;;2.05;;
49412;SDS011;35493;50.276;9.372;2023-01-01T07:17:29;3.83;;;2.00;;
49412;SDS011;35493;50.276;9.372;2023-01-01T07:19:56;4.68;;;2.10;;
49412;SDS011;35493;50.276;9.372;2023-01-01T07:22:23;4.15;;;2.13;;
49412;SDS011;35493;50.276;9.372;2023-01-01T07:24:50;4.47;;;2.20;;
49412;SDS011;35493;50.276;9.372;2023-01-01T07:27:18;5.43;;;2.40;;
49412;SDS011;35493;50.276;9.372;2023-01-01T07:29:45;5.88;;;2.40;;
49412;SDS011;35493;50.276;9.372;2023-01-01T07:32:14;5.78;;;2.10;;
49412;SDS011;35493;50.276;9.372;2023-01-01T07:34:42;5.30;;;2.08;;
49412;SDS011;35493;50.276;9.372;2023-01-01T07:37:09;5.30;;;2.03;;
49412;SDS011;35493;50.276;9.372;2023-01-01T07:39:36;5.47;;;2.05;;
49412;SDS011;35493;50.276;9.372;2023-01-01T07:42:03;4.72;;;2.10;;
49412;SDS011;35493;50.276;9.372;2023-01-01T07:44:33;4.75;;;1.88;;
49412;SDS011;35493;50.276;9.372;2023-01-01T07:47:00;5.25;;;2.47;;
49412;SDS011;35493;50.276;9.372;2023-01-01T07:49:27;4.70;;;1.83;;
49412;SDS011;35493;50.276;9.372;2023-01-01T07:51:54;7.18;;;2.58;;
49412;SDS011;35493;50.276;9.372;2023-01-01T07:54:21;6.72;;;2.38;;
49412;SDS011;35493;50.276;9.372;2023-01-01T07:56:48;5.32;;;2.20;;
49412;SDS011;35493;50.276;9.372;2023-01-01T07:59:17;6.35;;;1.90;;
49412;SDS011;35493;50.276;9.372;2023-01-01T08:01:45;3.25;;;1.85;;
49412;SDS011;35493;50.276;9.372;2023-01-01T08:04:12;5.70;;;2.03;;
49412;SDS011;35493;50.276;9.372;2023-01-01T08:06:40;5.97;;;2.00;;
49412;SDS011;35493;50.276;9.372;2023-01-01T08:09:08;5.88;;;2.22;;
49412;SDS011;35493;50.276;9.372;2023-01-01T08:11:35;5.93;;;1.92;;
49412;SDS011;35493;50.276;9.372;2023-01-01T08:14:02;4.50;;;2.00;;
49412;SDS011;35493;50.276;9.372;2023-01-01T08:16:29;4.80;;;2.10;;
49412;SDS011;35493;50.276;9.372;2023-01-01T08:19:00;4.93;;;2.00;;
49412;SDS011;35493;50.276;9.372;2023-01-01T08:21:27;7.28;;;1.80;;
49412;SDS011;35493;50.276;9.372;2023-01-01T08:23:54;6.43;;;2.75;;
49412;SDS011;35493;50.276;9.372;2023-01-01T08:26:26;6.22;;;2.08;;
49412;SDS011;35493;50.276;9.372;2023-01-01T08:28:54;5.90;;;1.88;;
49412;SDS011;35493;50.276;9.372;2023-01-01T08:31:21;7.13;;;2.10;;
49412;SDS011;35493;50.276;9.372;2023-01-01T08:33:48;5.40;;;1.70;;
49412;SDS011;35493;50.276;9.372;2023-01-01T08:36:17;7.05;;;2.30;;
49412;SDS011;35493;50.276;9.372;2023-01-01T08:38:45;7.32;;;2.22;;
49412;SDS011;35493;50.276;9.372;2023-01-01T08:41:12;4.85;;;1.70;;
49412;SDS011;35493;50.276;9.372;2023-01-01T08:43:39;6.38;;;1.80;;
49412;SDS011;35493;50.276;9.372;2023-01-01T08:46:06;5.32;;;1.83;;
49412;SDS011;35493;50.276;9.372;2023-01-01T08:48:33;3.38;;;1.52;;
49412;SDS011;35493;50.276;9.372;2023-01-01T08:51:00;4.18;;;1.60;;
49412;SDS011;35493;50.276;9.372;2023-01-01T08:53:29;4.97;;;1.83;;
49412;SDS011;35493;50.276;9.372;2023-01-01T08:55:57;4.70;;;1.70;;
49412;SDS011;35493;50.276;9.372;2023-01-01T08:58:25;5.25;;;1.67;;
49412;SDS011;35493;50.276;9.372;2023-01-01T09:00:52;5.35;;;1.83;;
49412;SDS011;35493;50.276;9.372;2023-01-01T09:03:20;5.55;;;1.90;;
49412;SDS011;35493;50.276;9.372;2023-01-01T09:05:47;9.68;;;1.95;;
49412;SDS011;35493;50.276;9.372;2023-01-01T09:08:14;4.78;;;1.60;;
49412;SDS011;35493;50.276;9.372;2023-01-01T09:10:48;5.22;;;2.08;;
49412;SDS011;35493;50.276;9.372;2023-01-01T09:13:17;5.05;;;1.83;;
49412;SDS011;35493;50.276;9.372;2023-01-01T09:15:46;6.28;;;1.98;;
49412;SDS011;35493;50.276;9.372;2023-01-01T09:18:14;5.15;;;2.00;;
49412;SDS011;35493;50.276;9.372;2023-01-01T09:20:41;8.40;;;2.00;;
49412;SDS011;35493;50.276;9.372;2023-01-01T09:23:08;4.85;;;1.95;;
49412;SDS011;35493;50.276;9.372;2023-01-01T09:25:36;8.50;;;2.20;;
49412;SDS011;35493;50.276;9.372;2023-01-01T09:28:06;8.13;;;2.00;;
49412;SDS011;35493;50.276;9.372;2023-01-01T09:30:34;6.95;;;2.10;;
49412;SDS011;35493;50.276;9.372;2023-01-01T09:33:01;6.57;;;1.70;;
49412;SDS011;35493;50.276;9.372;2023-01-01T09:35:29;4.80;;;1.92;;
49412;SDS011;35493;50.276;9.372;2023-01-01T09:37:56;4.05;;;1.92;;
49412;SDS011;35493;50.276;9.372;2023-01-01T09:40:26;4.72;;;1.85;;
49412;SDS011;35493;50.276;9.372;2023-01-01T09:42:59;5.07;;;1.83;;
49412;SDS011;35493;50.276;9.372;2023-01-01T09:45:34;6.43;;;1.77;;
49412;SDS011;35493;50.276;9.372;2023-01-01T09:48:09;6.35;;;1.90;;
49412;SDS011;35493;50.276;9.372;2023-01-01T09:50:39;5.45;;;1.67;;
49412;SDS011;35493;50.276;9.372;2023-01-01T09:53:10;5.30;;;1.55;;
49412;SDS011;35493;50.276;9.372;2023-01-01T09:55:42;4.05;;;1.63;;
49412;SDS011;35493;50.276;9.372;2023-01-01T09:58:14;5.85;;;2.00;;
49412;SDS011;35493;50.276;9.372;2023-01-01T10:00:42;5.93;;;2.15;;
49412;SDS011;35493;50.276;9.372;2023-01-01T10:03:16;5.15;;;1.63;;
49412;SDS011;35493;50.276;9.372;2023-01-01T10:05:52;5.32;;;1.58;;
49412;SDS011;35493;50.276;9.372;2023-01-01T10:08:30;5.38;;;1.65;;
49412;SDS011;35493;50.276;9.372;2023-01-01T10:11:07;5.88;;;1.75;;
49412;SDS011;35493;50.276;9.372;2023-01-01T10:13:42;5.53;;;1.45;;
49412;SDS011;35493;50.276;9.372;2023-01-01T10:16:11;7.80;;;1.83;;
49412;SDS011;35493;50.276;9.372;2023-01-01T10:18:43;4.70;;;1.70;;
49412;SDS011;35493;50.276;9.372;2023-01-01T10:21:13;4.75;;;1.58;;
49412;SDS011;35493;50.276;9.372;2023-01-01T10:23:43;6.47;;;1.70;;
49412;SDS011;35493;50.276;9.372;2023-01-01T10:26:14;6.47;;;1.95;;
49412;SDS011;35493;50.276;9.372;2023-01-01T10:28:48;4.80;;;1.73;;
49412;SDS011;35493;50.276;9.372;2023-01-01T10:31:24;5.70;;;1.50;;
49412;SDS011;35493;50.276;9.372;2023-01-01T10:33:54;5.68;;;1.50;;
49412;SDS011;35493;50.276;9.372;2023-01-01T10:36:21;5.50;;;1.60;;
49412;SDS011;35493;50.276;9.372;2023-01-01T10:38:49;4.60;;;1.55;;
49412;SDS011;35493;50.276;9.372;2023-01-01T10:41:17;5.00;;;1.83;;
49412;SDS011;35493;50.276;9.372;2023-01-01T10:43:44;6.75;;;1.60;;
49412;SDS011;35493;50.276;9.372;2023-01-01T10:46:14;5.00;;;1.67;;
49412;SDS011;35493;50.276;9.372;2023-01-01T10:49:02;4.72;;;1.80;;
49412;SDS011;35493;50.276;9.372;2023-01-01T10:51:31;4.75;;;1.67;;
49412;SDS011;35493;50.276;9.372;2023-01-01T10:53:58;5.25;;;1.63;;
49412;SDS011;35493;50.276;9.372;2023-01-01T10:56:36;4.53;;;1.40;;
49412;SDS011;35493;50.276;9.372;2023-01-01T10:59:07;5.93;;;1.67;;
49412;SDS011;35493;50.276;9.372;2023-01-01T11:02:06;5.97;;;1.98;;
49412;SDS011;35493;50.276;9.372;2023-01-01T11:04:41;4.28;;;1.60;;
49412;SDS011;35493;50.276;9.372;2023-01-01T11:07:10;6.93;;;2.05;;
49412;SDS011;35493;50.276;9.372;2023-01-01T11:09:46;6.22;;;1.63;;
49412;SDS011;35493;50.276;9.372;2023-01-01T11:12:16;8.02;;;2.13;;
49412;SDS011;35493;50.276;9.372;2023-01-01T11:14:51;4.10;;;1.60;;
49412;SDS011;35493;50.276;9.372;2023-01-01T11:17:20;4.47;;;1.70;;
49412;SDS011;35493;50.276;9.372;2023-01-01T11:19:48;5.05;;;1.42;;
49412;SDS011;35493;50.276;9.372;2023-01-01T11:25:03;4.07;;;1.60;;
49412;SDS011;35493;50.276;9.372;2023-01-01T11:27:41;7.13;;;2.13;;
49412;SDS011;35493;50.276;9.372;2023-01-01T11:30:21;4.70;;;2.03;;
49412;SDS011;35493;50.276;9.372;2023-01-01T11:32:51;7.32;;;2.00;;
49412;SDS011;35493;50.276;9.372;2023-01-01T11:35:21;6.30;;;2.15;;
49412;SDS011;35493;50.276;9.372;2023-01-01T11:37:49;4.25;;;1.70;;
49412;SDS011;35493;50.276;9.372;2023-01-01T11:40:18;5.65;;;1.83;;
49412;SDS011;35493;50.276;9.372;2023-01-01T11:42:48;5.30;;;1.80;;
49412;SDS011;35493;50.276;9.372;2023-01-01T11:45:18;6.90;;;2.00;;
49412;SDS011;35493;50.276;9.372;2023-01-01T11:47:52;4.68;;;1.75;;
49412;SDS011;35493;50.276;9.372;2023-01-01T11:50:23;4.78;;;1.80;;
49412;SDS011;35493;50.276;9.372;2023-01-01T11:52:55;6.82;;;1.85;;
49412;SDS011;35493;50.276;9.372;2023-01-01T11:55:27;9.20;;;1.90;;
49412;SDS011;35493;50.276;9.372;2023-01-01T11:58:05;8.68;;;1.80;;
49412;SDS011;35493;50.276;9.372;2023-01-01T12:00:40;6.28;;;1.80;;
49412;SDS011;35493;50.276;9.372;2023-01-01T12:03:16;8.25;;;2.20;;
49412;SDS011;35493;50.276;9.372;2023-01-01T12:05:50;8.48;;;1.88;;
49412;SDS011;35493;50.276;9.372;2023-01-01T12:08:25;5.70;;;1.75;;
49412;SDS011;35493;50.276;9.372;2023-01-01T12:10:59;4.80;;;1.90;;
49412;SDS011;35493;50.276;9.372;2023-01-01T12:13:36;5.35;;;1.92;;
49412;SDS011;35493;50.276;9.372;2023-01-01T12:16:12;5.60;;;1.90;;
49412;SDS011;35493;50.276;9.372;2023-01-01T12:18:46;4.80;;;1.77;;
49412;SDS011;35493;50.276;9.372;2023-01-01T12:21:19;7.10;;;2.35;;
49412;SDS011;35493;50.276;9.372;2023-01-01T12:23:50;4.47;;;1.95;;
49412;SDS011;35493;50.276;9.372;2023-01-01T12:26:18;5.65;;;1.95;;
49412;SDS011;35493;50.276;9.372;2023-01-01T12:29:11;6.57;;;2.50;;
49412;SDS011;35493;50.276;9.372;2023-01-01T12:32:01;7.13;;;2.20;;
49412;SDS011;35493;50.276;9.372;2023-01-01T12:34:32;7.85;;;2.42;;
49412;SDS011;35493;50.276;9.372;2023-01-01T12:37:05;5.32;;;1.73;;
49412;SDS011;35493;50.276;9.372;2023-01-01T12:39:48;6.45;;;2.00;;
49412;SDS011;35493;50.276;9.372;2023-01-01T12:42:57;4.80;;;2.08;;
49412;SDS011;35493;50.276;9.372;2023-01-01T12:45:41;4.43;;;1.85;;
49412;SDS011;35493;50.276;9.372;2023-01-01T12:48:23;6.22;;;1.60;;
49412;SDS011;35493;50.276;9.372;2023-01-01T12:51:03;6.22;;;1.65;;
49412;SDS011;35493;50.276;9.372;2023-01-01T12:53:42;4.97;;;1.83;;
49412;SDS011;35493;50.276;9.372;2023-01-01T12:56:16;6.00;;;1.98;;
49412;SDS011;35493;50.276;9.372;2023-01-01T12:58:47;5.70;;;2.10;;
49412;SDS011;35493;50.276;9.372;2023-01-01T13:01:18;4.70;;;1.85;;
49412;SDS011;35493;50.276;9.372;2023-01-01T13:03:50;5.13;;;1.63;;
49412;SDS011;35493;50.276;9.372;2023-01-01T13:06:21;6.25;;;1.95;;
49412;SDS011;35493;50.276;9.372;2023-01-01T13:08:55;6.07;;;1.75;;
49412;SDS011;35493;50.276;9.372;2023-01-01T13:11:27;3.97;;;1.60;;
49412;SDS011;35493;50.276;9.372;2023-01-01T13:13:55;5.10;;;1.65;;
49412;SDS011;35493;50.276;9.372;2023-01-01T13:19:21;4.70;;;1.42;;
49412;SDS011;35493;50.276;9.372;2023-01-01T13:21:51;5.30;;;1.98;;
49412;SDS011;35493;50.276;9.372;2023-01-01T13:24:19;4.63;;;1.60;;
49412;SDS011;35493;50.276;9.372;2023-01-01T13:26:47;6.35;;;2.05;;
49412;SDS011;35493;50.276;9.372;2023-01-01T13:29:24;5.72;;;2.03;;
49412;SDS011;35493;50.276;9.372;2023-01-01T13:32:03;8.13;;;1.90;;
49412;SDS011;35493;50.276;9.372;2023-01-01T13:34:36;5.10;;;1.83;;
49412;SDS011;35493;50.276;9.372;2023-01-01T13:37:28;5.43;;;1.90;;
49412;SDS011;35493;50.276;9.372;2023-01-01T13:43:18;5.55;;;1.75;;
49412;SDS011;35493;50.276;9.372;2023-01-01T13:45:47;4.75;;;1.67;;
49412;SDS011;35493;50.276;9.372;2023-01-01T13:48:22;7.68;;;2.13;;
49412;SDS011;35493;50.276;9.372;2023-01-01T13:51:13;5.25;;;1.63;;
49412;SDS011;35493;50.276;9.372;2023-01-01T13:53:59;5.90;;;2.17;;
49412;SDS011;35493;50.276;9.372;2023-01-01T13:56:46;7.65;;;2.85;;
49412;SDS011;35493;50.276;9.372;2023-01-01T13:59:27;6.88;;;2.20;;
49412;SDS011;35493;50.276;9.372;2023-01-01T14:02:21;7.60;;;2.10;;
49412;SDS011;35493;50.276;9.372;2023-01-01T14:04:52;5.10;;;1.90;;
49412;SDS011;35493;50.276;9.372;2023-01-01T14:07:27;4.65;;;1.95;;
49412;SDS011;35493;50.276;9.372;2023-01-01T14:10:14;7.60;;;2.83;;
49412;SDS011;35493;50.276;9.372;2023-01-01T14:12:43;13.77;;;6.47;;
49412;SDS011;35493;50.276;9.372;2023-01-01T14:15:13;16.73;;;10.63;;
49412;SDS011;35493;50.276;9.372;2023-01-01T14:17:42;19.77;;;12.93;;
49412;SDS011;35493;50.276;9.372;2023-01-01T14:20:13;19.15;;;12.93;;
49412;SDS011;35493;50.276;9.372;2023-01-01T14:22:44;18.38;;;12.15;;
49412;SDS011;35493;50.276;9.372;2023-01-01T14:25:15;15.85;;;10.80;;
49412;SDS011;35493;50.276;9.372;2023-01-01T14:27:47;13.27;;;8.57;;
49412;SDS011;35493;50.276;9.372;2023-01-01T14:30:15;11.95;;;7.25;;
49412;SDS011;35493;50.276;9.372;2023-01-01T14:32:42;11.65;;;6.85;;
49412;SDS011;35493;50.276;9.372;2023-01-01T14:35:13;10.88;;;5.88;;
49412;SDS011;35493;50.276;9.372;2023-01-01T14:37:41;7.05;;;4.70;;
49412;SDS011;35493;50.276;9.372;2023-01-01T14:40:16;10.50;;;4.40;;
49412;SDS011;35493;50.276;9.372;2023-01-01T14:42:51;8.85;;;5.22;;
49412;SDS011;35493;50.276;9.372;2023-01-01T14:45:21;12.13;;;7.03;;
49412;SDS011;35493;50.276;9.372;2023-01-01T14:47:50;16.45;;;8.25;;
49412;SDS011;35493;50.276;9.372;2023-01-01T14:50:22;20.52;;;9.27;;
49412;SDS011;35493;50.276;9.372;2023-01-01T14:52:54;22.73;;;12.75;;
49412;SDS011;35493;50.276;9.372;2023-01-01T14:55:31;24.17;;;12.85;;
49412;SDS011;35493;50.276;9.372;2023-01-01T14:58:01;25.17;;;13.85;;
49412;SDS011;35493;50.276;9.372;2023-01-01T15:00:32;29.10;;;16.20;;
49412;SDS011;35493;50.276;9.372;2023-01-01T15:03:06;31.70;;;15.85;;
49412;SDS011;35493;50.276;9.372;2023-01-01T15:05:37;27.60;;;14.77;;
49412;SDS011;35493;50.276;9.372;2023-01-01T15:08:16;28.27;;;14.32;;
49412;SDS011;35493;50.276;9.372;2023-01-01T15:10:45;28.10;;;13.48;;
49412;SDS011;35493;50.276;9.372;2023-01-01T15:13:15;22.98;;;11.85;;
49412;SDS011;35493;50.276;9.372;2023-01-01T15:15:44;19.70;;;11.05;;
49412;SDS011;35493;50.276;9.372;2023-01-01T15:21:01;22.42;;;12.38;;